createdAt,value
2018-04-25T00:02:05.521Z,17.69
2018-04-25T00:04:37.386Z,17.42
2018-04-25T00:07:09.050Z,17.62
2018-04-25T00:09:40.464Z,17.60
2018-04-25T00:12:11.872Z,17.62
2018-04-25T00:14:43.615Z,17.51
2018-04-25T00:17:15.362Z,17.39
2018-04-25T00:19:46.778Z,17.35
2018-04-25T00:22:19.253Z,17.24
2018-04-25T00:24:50.628Z,17.24
2018-04-25T00:27:22.462Z,17.25
2018-04-25T00:29:54.535Z,17.28
2018-04-25T00:32:26.126Z,17.28
2018-04-25T00:34:57.459Z,17.20
2018-04-25T00:37:28.799Z,17.14
2018-04-25T00:40:00.493Z,17.01
2018-04-25T00:42:31.879Z,16.87
2018-04-25T00:45:05.190Z,16.90
2018-04-25T00:47:37.555Z,16.84
2018-04-25T00:50:14.575Z,16.75
2018-04-25T00:52:45.214Z,16.80
2018-04-25T00:55:17.036Z,16.82
2018-04-25T00:57:48.440Z,16.74
2018-04-25T01:00:21.061Z,16.53
2018-04-25T01:02:54.379Z,16.60
2018-04-25T01:05:26.502Z,16.79
2018-04-25T01:07:57.915Z,16.85
2018-04-25T01:10:31.495Z,16.95
2018-04-25T01:13:03.796Z,16.89
2018-04-25T01:15:36.240Z,16.96
2018-04-25T01:18:08.583Z,16.93
2018-04-25T01:20:40.038Z,16.96
2018-04-25T01:23:11.637Z,16.81
2018-04-25T01:25:42.999Z,16.76
2018-04-25T01:28:13.648Z,16.64
2018-04-25T01:30:45.244Z,16.56
2018-04-25T01:33:16.322Z,16.64
2018-04-25T01:35:49.150Z,16.62
2018-04-25T01:38:19.606Z,16.61
2018-04-25T01:40:51.082Z,16.57
2018-04-25T01:43:22.474Z,16.57
2018-04-25T01:46:00.659Z,16.61
2018-04-25T01:48:33.727Z,16.67
2018-04-25T01:51:04.415Z,16.75
2018-04-25T01:53:59.967Z,16.63
2018-04-25T01:56:48.052Z,16.43
2018-04-25T01:59:35.428Z,16.10
2018-04-25T02:02:10.922Z,16.18
2018-04-25T02:04:42.112Z,16.23
2018-04-25T02:07:13.467Z,16.24
2018-04-25T02:09:43.699Z,16.27
2018-04-25T02:12:16.306Z,16.21
2018-04-25T02:14:47.986Z,16.19
2018-04-25T02:17:20.311Z,16.14
2018-04-25T02:19:50.991Z,16.17
2018-04-25T02:22:21.482Z,16.09
2018-04-25T02:24:53.263Z,16.12
2018-04-25T02:27:25.041Z,16.12
2018-04-25T02:29:57.065Z,16.15
2018-04-25T02:32:27.981Z,16.08
2018-04-25T02:35:00.466Z,16.07
2018-04-25T02:37:33.560Z,16.12
2018-04-25T02:40:04.371Z,16.03
2018-04-25T02:42:35.159Z,15.95
2018-04-25T02:45:06.618Z,15.98
2018-04-25T02:47:37.125Z,15.83
2018-04-25T02:50:07.613Z,15.91
2018-04-25T02:52:38.071Z,15.99
2018-04-25T02:55:08.607Z,15.91
2018-04-25T02:57:39.406Z,15.95
2018-04-25T03:00:09.947Z,15.90
2018-04-25T03:02:40.567Z,15.66
2018-04-25T03:05:12.629Z,15.56
2018-04-25T03:07:43.389Z,15.57
2018-04-25T03:10:14.159Z,15.47
2018-04-25T03:12:45.800Z,15.57
2018-04-25T03:15:16.639Z,15.63
2018-04-25T03:17:47.695Z,15.65
2018-04-25T03:20:18.164Z,15.66
2018-04-25T03:22:48.926Z,15.62
2018-04-25T03:25:20.055Z,15.64
2018-04-25T03:27:50.559Z,15.46
2018-04-25T03:30:21.094Z,15.30
2018-04-25T03:32:54.478Z,15.32
2018-04-25T03:35:24.910Z,15.33
2018-04-25T03:37:56.116Z,15.33
2018-04-25T03:40:26.559Z,15.18
2018-04-25T03:42:57.395Z,15.29
2018-04-25T03:45:27.936Z,15.25
2018-04-25T03:47:59.360Z,15.28
2018-04-25T03:50:29.899Z,15.26
2018-04-25T03:53:00.386Z,15.38
2018-04-25T03:55:30.990Z,15.52
2018-04-25T03:58:01.499Z,15.56
2018-04-25T04:00:32.048Z,15.55
2018-04-25T04:03:02.514Z,15.84
2018-04-25T04:05:33.143Z,16.05
2018-04-25T04:08:05.576Z,15.98
2018-04-25T04:10:36.319Z,16.09
2018-04-25T04:13:07.114Z,15.86
2018-04-25T04:15:37.686Z,15.83
2018-04-25T04:18:08.135Z,15.95
2018-04-25T04:20:38.656Z,15.92
2018-04-25T04:23:09.138Z,15.90
2018-04-25T04:25:39.836Z,15.76
2018-04-25T04:28:10.703Z,15.68
2018-04-25T04:30:41.232Z,15.53
2018-04-25T04:33:11.712Z,15.48
2018-04-25T04:35:42.162Z,15.57
2018-04-25T04:38:12.676Z,15.61
2018-04-25T04:40:43.219Z,15.78
2018-04-25T04:43:13.903Z,15.76
2018-04-25T04:45:44.539Z,15.87
2018-04-25T04:48:15.064Z,15.97
2018-04-25T04:50:45.602Z,15.99
2018-04-25T04:53:19.262Z,16.01
2018-04-25T04:55:49.718Z,16.04
2018-04-25T04:58:20.190Z,16.22
2018-04-25T05:00:50.734Z,16.42
2018-04-25T05:03:21.483Z,16.48
2018-04-25T05:05:52.012Z,16.64
2018-04-25T05:08:23.103Z,16.71
2018-04-25T05:10:53.598Z,16.94
2018-04-25T05:13:24.738Z,16.97
2018-04-25T05:15:56.288Z,16.97
2018-04-25T05:18:26.752Z,17.14
2018-04-25T05:20:58.182Z,17.27
2018-04-25T05:23:29.024Z,17.22
2018-04-25T05:25:59.618Z,17.28
2018-04-25T05:28:30.162Z,17.49
2018-04-25T05:31:00.691Z,17.38
2018-04-25T05:33:31.258Z,17.50
2018-04-25T05:36:02.437Z,17.85
2018-04-25T05:38:33.037Z,17.97
2018-04-25T05:41:03.581Z,18.14
2018-04-25T05:43:35.545Z,18.25
2018-04-25T05:46:06.250Z,18.22
2018-04-25T05:48:37.032Z,17.98
2018-04-25T05:51:08.099Z,18.16
2018-04-25T05:53:38.807Z,18.48
2018-04-25T05:56:09.448Z,18.74
2018-04-25T05:58:39.998Z,18.80
2018-04-25T06:01:10.618Z,18.83
2018-04-25T06:03:41.658Z,19.03
2018-04-25T06:06:12.163Z,19.14
2018-04-25T06:08:42.743Z,19.26
2018-04-25T06:11:13.579Z,19.46
2018-04-25T06:13:44.107Z,19.46
2018-04-25T06:16:14.651Z,19.08
2018-04-25T06:18:45.498Z,18.86
2018-04-25T06:21:16.026Z,19.19
2018-04-25T06:23:54.868Z,19.57
2018-04-25T06:26:28.997Z,19.49
2018-04-25T06:28:59.742Z,19.51
2018-04-25T06:31:30.262Z,19.73
2018-04-25T06:34:03.099Z,19.85
2018-04-25T06:36:33.741Z,19.99
2018-04-25T06:39:04.407Z,19.93
2018-04-25T06:44:15.254Z,20.26
2018-04-25T06:46:45.613Z,20.27
2018-04-25T06:49:16.575Z,20.35
2018-04-25T06:51:47.720Z,19.94
2018-04-25T06:54:18.186Z,19.80
2018-04-25T06:56:49.010Z,20.07
2018-04-25T06:59:19.774Z,20.26
2018-04-25T07:01:50.230Z,20.36
2018-04-25T07:04:22.106Z,20.58
2018-04-25T07:06:52.560Z,20.44
2018-04-25T07:09:23.230Z,20.76
2018-04-25T07:11:54.131Z,20.54
2018-04-25T07:14:25.578Z,20.51
2018-04-25T07:16:56.089Z,20.42
2018-04-25T07:19:27.983Z,20.49
2018-04-25T07:21:58.625Z,20.63
2018-04-25T07:24:29.162Z,20.60
2018-04-25T07:27:00.748Z,20.64
2018-04-25T07:29:31.466Z,20.80
2018-04-25T07:32:02.790Z,20.83
2018-04-25T07:34:35.725Z,20.82
2018-04-25T07:37:06.265Z,21.09
2018-04-25T07:39:37.368Z,21.49
2018-04-25T07:42:12.511Z,21.33
2018-04-25T07:44:44.404Z,21.01
2018-04-25T07:47:20.752Z,20.92
2018-04-25T07:49:52.974Z,20.93
2018-04-25T07:52:24.477Z,20.84
2018-04-25T07:55:02.800Z,20.71
2018-04-25T07:57:34.045Z,20.48
2018-04-25T08:00:06.410Z,20.51
2018-04-25T08:02:37.586Z,20.68
2018-04-25T08:05:09.036Z,20.63
2018-04-25T08:07:39.837Z,20.68
2018-04-25T08:10:11.539Z,20.57
2018-04-25T08:12:53.004Z,20.76
2018-04-25T08:17:37.650Z,20.71
2018-04-25T08:20:17.527Z,20.34
2018-04-25T08:22:48.047Z,20.55
2018-04-25T08:25:18.559Z,20.47
2018-04-25T08:27:55.563Z,20.86
2018-04-25T08:30:26.381Z,21.22
2018-04-25T08:32:56.880Z,21.42
2018-04-25T08:35:27.519Z,21.16
2018-04-25T08:37:58.347Z,21.35
2018-04-25T08:40:35.949Z,21.07
2018-04-25T08:43:06.789Z,21.01
2018-04-25T08:45:37.366Z,21.24
2018-04-25T08:48:08.876Z,21.33
2018-04-25T08:50:39.651Z,21.52
2018-04-25T08:53:10.812Z,21.91
2018-04-25T08:55:41.420Z,21.92
2018-04-25T08:58:11.949Z,22.10
2018-04-25T09:00:42.663Z,22.43
2018-04-25T09:03:13.505Z,22.29
2018-04-25T09:05:44.713Z,22.30
2018-04-25T09:10:43.884Z,22.48
2018-04-25T09:13:16.033Z,22.83
2018-04-25T09:15:46.706Z,23.30
2018-04-25T09:18:19.821Z,23.39
2018-04-25T09:20:50.756Z,22.71
2018-04-25T09:23:24.069Z,22.50
2018-04-25T09:25:54.858Z,22.68
2018-04-25T09:28:25.427Z,22.83
2018-04-25T09:30:57.284Z,22.72
2018-04-25T09:33:27.863Z,22.74
2018-04-25T09:35:58.586Z,22.17
2018-04-25T09:38:29.109Z,21.89
2018-04-25T09:40:59.736Z,22.19
2018-04-25T09:43:30.586Z,22.64
2018-04-25T09:46:01.399Z,22.36
2018-04-25T09:48:32.149Z,22.22
2018-04-25T09:51:03.114Z,22.27
2018-04-25T09:53:34.058Z,22.16
2018-04-25T09:56:05.392Z,22.17
2018-04-25T09:58:37.270Z,22.03
2018-04-25T10:01:08.106Z,21.79
2018-04-25T10:03:44.423Z,21.93
2018-04-25T10:06:25.959Z,21.87
2018-04-25T10:08:58.766Z,21.87
2018-04-25T10:11:29.780Z,21.67
2018-04-25T10:14:00.720Z,21.82
2018-04-25T10:16:32.014Z,21.77
2018-04-25T10:19:05.611Z,21.73
2018-04-25T10:21:36.189Z,21.76
2018-04-25T10:24:07.089Z,21.64
2018-04-25T10:26:37.613Z,21.21
2018-04-25T10:29:08.912Z,21.28
2018-04-25T10:31:41.927Z,20.93
2018-04-25T10:34:12.523Z,20.32
2018-04-25T10:36:43.179Z,20.42
2018-04-25T10:39:13.844Z,20.31
2018-04-25T10:41:44.415Z,20.22
2018-04-25T10:44:16.380Z,20.28
2018-04-25T10:46:46.919Z,20.34
2018-04-25T10:49:18.225Z,20.57
2018-04-25T10:51:50.558Z,20.70
2018-04-25T10:54:21.931Z,20.94
2018-04-25T10:56:52.538Z,21.11
2018-04-25T10:59:23.986Z,21.12
2018-04-25T11:01:54.451Z,21.01
2018-04-25T11:04:25.396Z,20.99
2018-04-25T11:06:55.983Z,21.03
2018-04-25T11:09:27.008Z,20.93
2018-04-25T11:12:01.880Z,21.06
2018-04-25T11:14:32.383Z,20.82
2018-04-25T11:17:04.009Z,20.71
2018-04-25T11:19:34.736Z,20.74
2018-04-25T11:22:09.789Z,20.93
2018-04-25T11:24:41.102Z,20.87
2018-04-25T11:27:11.723Z,20.93
2018-04-25T11:29:42.756Z,20.96
2018-04-25T11:32:13.743Z,20.96
2018-04-25T11:34:44.288Z,21.05
2018-04-25T11:37:14.880Z,21.19
2018-04-25T11:39:45.399Z,21.42
2018-04-25T11:42:17.303Z,21.45
2018-04-25T11:44:48.802Z,21.81
2018-04-25T11:47:19.982Z,21.94
2018-04-25T11:49:51.073Z,22.24
2018-04-25T11:52:21.764Z,22.04
2018-04-25T11:54:52.523Z,22.11
2018-04-25T11:57:23.053Z,21.85
2018-04-25T11:59:53.628Z,21.78
2018-04-25T12:02:24.239Z,21.69
2018-04-25T12:04:56.111Z,21.54
2018-04-25T12:07:27.583Z,21.90
2018-04-25T12:09:58.210Z,21.94
2018-04-25T12:12:28.754Z,22.24
2018-04-25T12:14:59.265Z,23.05
2018-04-25T12:17:29.850Z,23.49
2018-04-25T12:20:01.433Z,23.36
2018-04-25T12:23:02.710Z,23.61
2018-04-25T12:25:33.641Z,23.52
2018-04-25T12:28:04.234Z,22.95
2018-04-25T12:30:39.627Z,22.95
2018-04-25T12:33:12.119Z,22.22
2018-04-25T12:35:45.454Z,21.41
2018-04-25T12:38:19.723Z,20.75
2018-04-25T12:40:53.138Z,20.42
2018-04-25T12:43:26.369Z,20.39
2018-04-25T12:45:59.844Z,20.18
2018-04-25T12:48:34.426Z,20.18
2018-04-25T12:51:06.762Z,20.36
2018-04-25T12:53:40.905Z,19.99
2018-04-25T12:56:15.225Z,20.11
2018-04-25T12:58:47.577Z,20.15
2018-04-25T13:01:19.163Z,20.36
2018-04-25T13:03:50.588Z,20.34
2018-04-25T13:06:22.093Z,20.46
2018-04-25T13:08:54.389Z,20.44
2018-04-25T13:11:25.982Z,20.34
2018-04-25T13:13:57.356Z,20.44
2018-04-25T13:16:32.018Z,20.46
2018-04-25T13:19:06.062Z,20.43
2018-04-25T13:21:40.134Z,20.08
2018-04-25T13:24:12.510Z,19.83
2018-04-25T13:26:46.817Z,20.06
2018-04-25T13:29:19.224Z,19.88
2018-04-25T13:31:52.772Z,19.44
2018-04-25T13:34:29.540Z,19.35
2018-04-25T13:37:02.253Z,18.93
2018-04-25T13:39:34.479Z,18.68
2018-04-25T13:42:08.026Z,18.40
2018-04-25T13:44:39.239Z,18.39
2018-04-25T13:47:10.773Z,18.50
2018-04-25T13:49:43.064Z,19.20
2018-04-25T13:52:16.245Z,19.59
2018-04-25T13:54:50.153Z,20.27
2018-04-25T13:57:24.326Z,20.86
2018-04-25T14:00:06.445Z,21.45
2018-04-25T14:02:38.763Z,21.90
2018-04-25T14:05:12.005Z,21.66
2018-04-25T14:07:44.435Z,21.34
2018-04-25T14:10:16.672Z,21.25
2018-04-25T14:12:51.985Z,21.21
2018-04-25T14:15:24.308Z,21.09
2018-04-25T14:17:58.325Z,21.37
2018-04-25T14:20:29.874Z,22.00
2018-04-25T14:23:02.699Z,22.52
2018-04-25T14:25:37.207Z,22.92
2018-04-25T14:28:12.380Z,23.37
2018-04-25T14:30:47.907Z,23.54
2018-04-25T14:33:23.193Z,23.25
2018-04-25T14:35:59.918Z,22.72
2018-04-25T14:38:39.281Z,22.34
2018-04-25T14:41:11.620Z,22.27
2018-04-25T14:43:46.083Z,22.23
2018-04-25T14:46:17.635Z,21.94
2018-04-25T14:48:49.316Z,21.29
2018-04-25T14:51:24.384Z,20.96
2018-04-25T14:54:02.313Z,20.68
2018-04-25T14:56:36.188Z,20.70
2018-04-25T14:59:10.812Z,20.47
2018-04-25T15:01:44.906Z,20.07
2018-04-25T15:04:18.875Z,19.75
2018-04-25T15:06:52.112Z,19.73
2018-04-25T15:09:26.091Z,19.82
2018-04-25T15:11:59.440Z,19.81
2018-04-25T15:14:32.703Z,20.09
2018-04-25T15:17:07.222Z,20.69
2018-04-25T15:19:41.348Z,20.96
2018-04-25T15:22:15.012Z,20.70
2018-04-25T15:24:48.302Z,20.82
2018-04-25T15:27:21.524Z,20.88
2018-04-25T15:29:54.806Z,21.03
2018-04-25T15:32:28.821Z,21.30
2018-04-25T15:35:02.107Z,21.23
2018-04-25T15:37:35.387Z,21.16
2018-04-25T15:40:10.154Z,21.21
2018-04-25T15:42:43.683Z,21.29
2018-04-25T15:45:16.947Z,21.24
2018-04-25T15:47:50.266Z,21.22
2018-04-25T15:50:22.497Z,21.25
2018-04-25T15:52:55.863Z,21.01
2018-04-25T15:55:29.099Z,20.93
2018-04-25T15:58:02.919Z,20.91
2018-04-25T16:00:36.741Z,21.10
2018-04-25T16:03:09.579Z,21.30
2018-04-25T16:05:42.095Z,21.58
2018-04-25T16:08:17.302Z,21.41
2018-04-25T16:10:51.252Z,21.34
2018-04-25T16:13:22.856Z,20.91
2018-04-25T16:15:54.614Z,20.66
2018-04-25T16:18:26.998Z,21.07
2018-04-25T16:20:58.724Z,21.36
2018-04-25T16:23:31.066Z,21.25
2018-04-25T16:26:03.240Z,21.83
2018-04-25T16:28:36.152Z,22.20
2018-04-25T16:31:08.658Z,21.97
2018-04-25T16:33:40.313Z,21.39
2018-04-25T16:36:12.898Z,21.04
2018-04-25T16:38:45.169Z,20.93
2018-04-25T16:41:17.499Z,20.40
2018-04-25T16:43:48.990Z,20.22
2018-04-25T16:46:20.302Z,20.32
2018-04-25T16:48:52.465Z,20.23
2018-04-25T16:51:23.823Z,20.24
2018-04-25T16:53:55.296Z,20.06
2018-04-25T16:56:27.532Z,20.23
2018-04-25T16:58:59.887Z,20.23
2018-04-25T17:01:31.403Z,20.36
2018-04-25T17:04:03.799Z,20.35
2018-04-25T17:06:36.232Z,20.39
2018-04-25T17:09:07.702Z,20.29
2018-04-25T17:11:40.157Z,20.24
2018-04-25T17:14:11.711Z,20.30
2018-04-25T17:16:44.094Z,20.24
2018-04-25T17:19:15.529Z,20.17
2018-04-25T17:21:47.860Z,20.33
2018-04-25T17:24:19.196Z,20.37
2018-04-25T17:26:50.550Z,20.10
2018-04-25T17:29:22.503Z,20.03
2018-04-25T17:31:56.361Z,20.13
2018-04-25T17:34:27.918Z,20.17
2018-04-25T17:36:59.572Z,20.13
2018-04-25T17:39:30.998Z,19.85
2018-04-25T17:42:03.296Z,19.86
2018-04-25T17:44:35.863Z,19.71
2018-04-25T17:47:07.197Z,19.69
2018-04-25T17:49:40.607Z,19.34
2018-04-25T17:52:12.075Z,19.40
2018-04-25T17:54:44.446Z,19.43
2018-04-25T17:57:16.808Z,19.50
2018-04-25T17:59:48.161Z,19.37
2018-04-25T18:02:20.584Z,19.30
2018-04-25T18:04:52.004Z,19.07
2018-04-25T18:07:24.026Z,18.95
2018-04-25T18:09:55.463Z,19.12
2018-04-25T18:12:26.844Z,19.13
2018-04-25T18:14:58.254Z,19.02
2018-04-25T18:17:30.941Z,19.00
2018-04-25T18:20:03.180Z,18.95
2018-04-25T18:22:34.584Z,19.14
2018-04-25T18:25:06.075Z,19.15
2018-04-25T18:27:39.475Z,19.02
2018-04-25T18:30:10.834Z,19.06
2018-04-25T18:32:44.330Z,19.25
2018-04-25T18:35:16.515Z,19.24
2018-04-25T18:37:47.942Z,19.28
2018-04-25T18:40:19.405Z,19.12
2018-04-25T18:42:50.751Z,18.80
2018-04-25T18:45:23.975Z,18.77
2018-04-25T18:47:56.172Z,18.95
2018-04-25T18:50:27.626Z,18.98
2018-04-25T18:52:59.933Z,18.93
2018-04-25T18:55:31.446Z,18.86
2018-04-25T18:58:02.865Z,18.67
2018-04-25T19:00:34.391Z,18.54
2018-04-25T19:03:05.869Z,18.44
2018-04-25T19:05:40.071Z,18.31
2018-04-25T19:08:11.614Z,18.30
2018-04-25T19:10:45.557Z,18.30
2018-04-25T19:13:17.887Z,18.25
2018-04-25T19:15:51.916Z,18.55
2018-04-25T19:18:25.916Z,18.70
2018-04-25T19:20:57.919Z,18.64
2018-04-25T19:23:30.497Z,18.55
2018-04-25T19:26:03.664Z,18.42
2018-04-25T19:28:35.215Z,18.50
2018-04-25T19:31:07.452Z,18.49
2018-04-25T19:33:44.957Z,18.31
2018-04-25T19:36:18.181Z,18.27
2018-04-25T19:38:54.887Z,18.28
2018-04-25T19:41:28.799Z,18.16
2018-04-25T19:44:02.108Z,18.10
2018-04-25T19:46:35.343Z,18.05
2018-04-25T19:49:10.263Z,18.01
2018-04-25T19:51:43.737Z,18.07
2018-04-25T19:54:17.737Z,18.36
2018-04-25T19:56:51.763Z,18.52
2018-04-25T19:59:24.108Z,18.56
2018-04-25T20:01:56.326Z,18.78
2018-04-25T20:04:29.613Z,18.77
2018-04-25T20:07:01.039Z,18.78
2018-04-25T20:09:32.530Z,18.40
2018-04-25T20:12:03.978Z,18.36
2018-04-25T20:14:35.925Z,18.23
2018-04-25T20:17:08.270Z,18.13
2018-04-25T20:19:40.729Z,18.03
2018-04-25T20:22:12.245Z,17.90
2018-04-25T20:24:43.778Z,17.98
2018-04-25T20:27:15.143Z,17.98
2018-04-25T20:29:46.640Z,17.87
2018-04-25T20:32:18.208Z,17.91
2018-04-25T20:34:50.056Z,17.99
2018-04-25T20:37:22.300Z,18.02
2018-04-25T20:39:53.846Z,18.08
2018-04-25T20:42:26.054Z,18.16
2018-04-25T20:45:01.328Z,18.20
2018-04-25T20:47:33.917Z,18.16
2018-04-25T20:50:07.937Z,18.13
2018-04-25T20:52:39.802Z,18.12
2018-04-25T20:55:12.159Z,17.89
2018-04-25T20:57:43.843Z,17.96
2018-04-25T21:00:16.449Z,17.73
2018-04-25T21:02:48.046Z,17.64
2018-04-25T21:05:19.421Z,17.55
2018-04-25T21:07:51.129Z,17.42
2018-04-25T21:10:23.420Z,17.38
2018-04-25T21:12:55.696Z,17.38
2018-04-25T21:15:27.611Z,17.47
2018-04-25T21:17:59.866Z,17.71
2018-04-25T21:20:31.339Z,17.55
2018-04-25T21:23:03.575Z,17.18
2018-04-25T21:25:34.892Z,17.23
2018-04-25T21:28:07.525Z,17.33
2018-04-25T21:30:39.239Z,17.13
2018-04-25T21:33:11.559Z,16.98
2018-04-25T21:35:48.244Z,16.84
2018-04-25T21:38:20.587Z,16.87
2018-04-25T21:40:52.054Z,16.68
2018-04-25T21:43:24.683Z,16.65
2018-04-25T21:45:57.920Z,16.82
2018-04-25T21:48:30.507Z,16.75
2018-04-25T21:51:02.864Z,16.72
2018-04-25T21:53:34.852Z,16.51
2018-04-25T21:56:06.162Z,16.49
2018-04-25T21:58:37.543Z,16.46
2018-04-25T22:01:09.427Z,16.24
2018-04-25T22:03:41.579Z,16.28
2018-04-25T22:06:14.123Z,16.21
2018-04-25T22:08:46.423Z,16.30
2018-04-25T22:11:17.733Z,15.97
2018-04-25T22:13:55.872Z,15.99
2018-04-25T22:16:27.202Z,15.82
2018-04-25T22:18:59.692Z,15.72
2018-04-25T22:21:31.242Z,15.70
2018-04-25T22:24:03.567Z,15.61
2018-04-25T22:26:35.220Z,15.55
2018-04-25T22:29:06.653Z,15.58
2018-04-25T22:31:39.090Z,15.51
2018-04-25T22:34:11.535Z,15.51
2018-04-25T22:36:44.006Z,15.41
2018-04-25T22:39:15.759Z,15.45
2018-04-25T22:41:48.043Z,15.31
2018-04-25T22:44:20.438Z,15.33
2018-04-25T22:46:52.495Z,15.29
2018-04-25T22:49:26.888Z,15.40
2018-04-25T22:52:00.973Z,15.42
2018-04-25T22:54:32.490Z,15.53
2018-04-25T22:57:06.390Z,15.59
2018-04-25T22:59:41.520Z,15.43
2018-04-25T23:02:14.735Z,15.42
2018-04-25T23:04:49.079Z,15.38
2018-04-25T23:07:25.100Z,15.32
2018-04-25T23:09:59.817Z,15.22
2018-04-25T23:12:33.078Z,15.19
2018-04-25T23:15:06.931Z,15.38
2018-04-25T23:17:40.765Z,15.57
2018-04-25T23:20:13.923Z,15.70
2018-04-25T23:22:47.150Z,15.59
2018-04-25T23:25:20.620Z,15.57
2018-04-25T23:27:53.778Z,15.35
2018-04-25T23:30:27.020Z,15.22
2018-04-25T23:33:00.282Z,15.26
2018-04-25T23:35:35.622Z,15.10
2018-04-25T23:38:09.534Z,15.06
2018-04-25T23:40:43.896Z,14.95
2018-04-25T23:43:17.628Z,14.80
2018-04-25T23:45:50.751Z,14.70
2018-04-25T23:48:23.956Z,14.67
2018-04-25T23:50:57.982Z,14.55
2018-04-25T23:53:31.203Z,14.56
2018-04-25T23:56:04.507Z,14.56
2018-04-25T23:58:39.846Z,14.54
